createdAt,value
2018-12-21T00:00:23.242Z,-0.10
2018-12-21T00:02:54.442Z,-0.10
2018-12-21T00:05:23.008Z,-0.10
2018-12-21T00:07:51.587Z,-0.10
2018-12-21T00:10:20.129Z,-0.10
2018-12-21T00:12:48.684Z,0.00
2018-12-21T00:15:17.216Z,-0.10
2018-12-21T00:17:45.904Z,0.00
2018-12-21T00:20:14.717Z,0.00
2018-12-21T00:22:43.266Z,0.10
2018-12-21T00:25:11.803Z,0.10
2018-12-21T00:27:40.542Z,0.10
2018-12-21T00:30:11.668Z,0.10
2018-12-21T00:32:45.519Z,0.10
2018-12-21T00:35:19.500Z,0.10
2018-12-21T00:37:53.616Z,0.10
2018-12-21T00:40:27.781Z,0.20
2018-12-21T00:43:01.666Z,0.20
2018-12-21T00:45:33.791Z,0.10
2018-12-21T00:48:02.589Z,0.20
2018-12-21T00:50:31.229Z,0.20
2018-12-21T00:52:59.786Z,0.20
2018-12-21T00:55:28.292Z,0.20
2018-12-21T00:57:56.857Z,0.20
2018-12-21T01:00:26.654Z,0.20
2018-12-21T01:02:55.283Z,0.20
2018-12-21T01:05:24.001Z,0.20
2018-12-21T01:07:52.556Z,0.20
2018-12-21T01:10:21.277Z,0.20
2018-12-21T01:12:49.864Z,0.20
2018-12-21T01:15:18.773Z,0.20
2018-12-21T01:17:47.304Z,0.20
2018-12-21T01:20:16.467Z,0.20
2018-12-21T01:22:45.291Z,0.20
2018-12-21T01:25:13.915Z,0.20
2018-12-21T01:27:42.406Z,0.20
2018-12-21T01:30:11.248Z,0.20
2018-12-21T01:32:39.916Z,0.20
2018-12-21T01:35:08.754Z,0.20
2018-12-21T01:37:37.311Z,0.20
2018-12-21T01:40:06.592Z,0.20
2018-12-21T01:42:35.929Z,0.20
2018-12-21T01:45:04.897Z,0.20
2018-12-21T01:47:33.504Z,0.20
2018-12-21T01:50:01.996Z,0.20
2018-12-21T01:52:30.648Z,0.20
2018-12-21T01:54:59.154Z,0.10
2018-12-21T01:57:27.686Z,0.10
2018-12-21T01:59:56.189Z,0.00
2018-12-21T02:02:24.715Z,0.00
2018-12-21T02:04:53.345Z,0.00
2018-12-21T02:07:22.045Z,-0.10
2018-12-21T02:09:50.534Z,-0.10
2018-12-21T02:12:19.093Z,-0.10
2018-12-21T02:14:47.652Z,-0.20
2018-12-21T02:17:16.215Z,-0.20
2018-12-21T02:19:44.891Z,-0.20
2018-12-21T02:22:13.423Z,-0.30
2018-12-21T02:24:42.054Z,-0.30
2018-12-21T02:27:10.581Z,-0.30
2018-12-21T02:29:39.120Z,-0.20
2018-12-21T02:32:07.700Z,-0.10
2018-12-21T02:34:36.361Z,-0.10
2018-12-21T02:37:04.911Z,-0.10
2018-12-21T02:39:34.015Z,0.00
2018-12-21T02:42:02.614Z,0.00
2018-12-21T02:44:31.117Z,0.00
2018-12-21T02:46:59.650Z,0.10
2018-12-21T02:49:28.709Z,0.00
2018-12-21T02:52:05.328Z,0.10
2018-12-21T02:54:27.846Z,0.00
2018-12-21T02:56:56.395Z,0.10
2018-12-21T02:59:24.923Z,0.10
2018-12-21T03:01:53.425Z,0.10
2018-12-21T03:04:21.923Z,0.10
2018-12-21T03:06:50.707Z,0.10
2018-12-21T03:09:19.326Z,0.10
2018-12-21T03:11:48.169Z,0.10
2018-12-21T03:14:16.712Z,0.10
2018-12-21T03:16:45.232Z,0.10
2018-12-21T03:19:14.034Z,0.10
2018-12-21T03:21:42.595Z,0.10
2018-12-21T03:24:11.086Z,0.10
2018-12-21T03:26:40.033Z,0.10
2018-12-21T03:29:08.854Z,0.10
2018-12-21T03:31:37.395Z,0.10
2018-12-21T03:34:05.953Z,0.10
2018-12-21T03:36:34.467Z,0.10
2018-12-21T03:39:03.483Z,0.00
2018-12-21T03:41:31.979Z,0.00
2018-12-21T03:44:00.758Z,0.00
2018-12-21T03:46:29.247Z,-0.10
2018-12-21T03:48:57.772Z,-0.10
2018-12-21T03:51:26.539Z,-0.10
2018-12-21T03:53:55.194Z,-0.10
2018-12-21T03:56:24.011Z,-0.10
2018-12-21T03:58:52.665Z,-0.10
2018-12-21T04:01:21.247Z,-0.20
2018-12-21T04:03:49.828Z,-0.20
2018-12-21T04:06:18.357Z,-0.20
2018-12-21T04:08:46.869Z,-0.30
2018-12-21T04:11:15.531Z,-0.20
2018-12-21T04:13:44.033Z,-0.20
2018-12-21T04:16:12.632Z,-0.20
2018-12-21T04:18:41.144Z,-0.20
2018-12-21T04:21:09.742Z,-0.20
2018-12-21T04:23:38.329Z,-0.20
2018-12-21T04:26:07.218Z,-0.20
2018-12-21T04:28:35.713Z,-0.20
2018-12-21T04:31:04.418Z,-0.20
2018-12-21T04:33:32.935Z,-0.20
2018-12-21T04:36:01.651Z,-0.30
2018-12-21T04:38:30.339Z,-0.30
2018-12-21T04:40:58.882Z,-0.30
2018-12-21T04:43:27.372Z,-0.30
2018-12-21T04:45:55.887Z,-0.30
2018-12-21T04:48:24.430Z,-0.20
2018-12-21T04:50:54.360Z,-0.20
2018-12-21T04:53:22.909Z,-0.20
2018-12-21T04:55:51.535Z,-0.20
2018-12-21T04:58:20.118Z,-0.20
2018-12-21T05:00:48.654Z,-0.10
2018-12-21T05:03:17.507Z,-0.10
2018-12-21T05:05:46.062Z,-0.10
2018-12-21T05:08:14.699Z,-0.10
2018-12-21T05:10:43.166Z,-0.10
2018-12-21T05:13:11.840Z,-0.10
2018-12-21T05:15:40.329Z,-0.10
2018-12-21T05:18:09.142Z,-0.10
2018-12-21T05:20:37.691Z,-0.10
2018-12-21T05:23:06.377Z,-0.10
2018-12-21T05:25:34.923Z,-0.10
2018-12-21T05:28:03.472Z,-0.10
2018-12-21T05:30:32.149Z,-0.10
2018-12-21T05:33:01.019Z,-0.10
2018-12-21T05:35:29.636Z,-0.10
2018-12-21T05:37:58.188Z,0.00
2018-12-21T05:40:26.680Z,0.00
2018-12-21T05:42:55.383Z,0.00
2018-12-21T05:45:24.135Z,0.00
2018-12-21T05:47:53.633Z,0.00
2018-12-21T05:50:22.631Z,0.10
2018-12-21T05:52:51.318Z,0.00
2018-12-21T05:55:19.802Z,0.10
2018-12-21T05:57:48.293Z,0.10
2018-12-21T06:00:16.775Z,0.10
2018-12-21T06:02:45.432Z,0.10
2018-12-21T06:05:14.115Z,0.10
2018-12-21T06:07:42.696Z,0.20
2018-12-21T06:10:11.240Z,0.20
2018-12-21T06:12:39.692Z,0.20
2018-12-21T06:15:08.637Z,0.20
2018-12-21T06:17:37.083Z,0.20
2018-12-21T06:20:05.720Z,0.30
2018-12-21T06:22:34.182Z,0.30
2018-12-21T06:25:02.800Z,0.30
2018-12-21T06:27:31.404Z,0.30
2018-12-21T06:29:59.920Z,0.30
2018-12-21T06:32:28.788Z,0.30
2018-12-21T06:34:57.515Z,0.30
2018-12-21T06:37:26.197Z,0.30
2018-12-21T06:39:54.819Z,0.30
2018-12-21T06:42:23.571Z,0.30
2018-12-21T06:44:52.080Z,0.40
2018-12-21T06:47:20.769Z,0.40
2018-12-21T06:49:49.343Z,0.40
2018-12-21T06:52:17.933Z,0.40
2018-12-21T06:54:46.464Z,0.40
2018-12-21T06:57:15.408Z,0.40
2018-12-21T06:59:43.891Z,0.50
2018-12-21T07:02:12.371Z,0.50
2018-12-21T07:04:40.853Z,0.50
2018-12-21T07:07:09.343Z,0.50
2018-12-21T07:09:37.934Z,0.50
2018-12-21T07:12:06.543Z,0.50
2018-12-21T07:14:35.387Z,0.60
2018-12-21T07:17:04.162Z,0.60
2018-12-21T07:19:32.817Z,0.60
2018-12-21T07:22:01.339Z,0.60
2018-12-21T07:24:29.887Z,0.70
2018-12-21T07:26:58.575Z,0.70
2018-12-21T07:29:27.101Z,0.70
2018-12-21T07:31:55.634Z,0.80
2018-12-21T07:34:25.989Z,0.80
2018-12-21T07:36:54.678Z,0.90
2018-12-21T07:39:23.286Z,1.00
2018-12-21T07:41:52.055Z,1.10
2018-12-21T07:44:20.552Z,1.20
2018-12-21T07:46:49.118Z,1.20
2018-12-21T07:49:18.034Z,1.20
2018-12-21T07:51:46.548Z,1.30
2018-12-21T07:54:15.717Z,1.40
2018-12-21T07:56:44.343Z,1.50
2018-12-21T07:59:13.472Z,2.40
2018-12-21T08:01:42.111Z,3.30
2018-12-21T08:04:10.844Z,4.40
2018-12-21T08:06:39.644Z,5.70
2018-12-21T08:09:08.617Z,6.50
2018-12-21T08:11:37.191Z,7.60
2018-12-21T08:14:05.791Z,8.40
2018-12-21T08:16:34.289Z,8.30
2018-12-21T08:19:03.067Z,7.50
2018-12-21T08:21:31.712Z,7.60
2018-12-21T08:24:00.230Z,7.60
2018-12-21T08:26:29.694Z,7.30
2018-12-21T08:28:58.220Z,7.80
2018-12-21T08:31:26.714Z,8.30
2018-12-21T08:33:55.317Z,9.90
2018-12-21T08:36:23.789Z,10.60
2018-12-21T08:38:52.652Z,9.00
2018-12-21T08:41:21.155Z,8.00
2018-12-21T08:43:49.665Z,8.70
2018-12-21T08:46:18.474Z,9.80
2018-12-21T08:48:47.170Z,10.10
2018-12-21T08:51:15.653Z,9.20
2018-12-21T08:53:52.386Z,9.00
2018-12-21T08:56:14.658Z,8.20
2018-12-21T08:58:43.235Z,7.60
2018-12-21T09:01:11.748Z,7.20
2018-12-21T09:03:40.616Z,6.80
2018-12-21T09:06:09.066Z,6.50
2018-12-21T09:08:37.625Z,6.30
2018-12-21T09:11:06.080Z,6.10
2018-12-21T09:13:34.538Z,5.90
2018-12-21T09:16:03.011Z,5.80
2018-12-21T09:18:31.500Z,5.70
2018-12-21T09:21:00.341Z,5.60
2018-12-21T09:23:28.826Z,5.60
2018-12-21T09:25:57.577Z,5.80
2018-12-21T09:28:26.083Z,6.00
2018-12-21T09:30:54.586Z,6.00
2018-12-21T09:33:23.085Z,6.00
2018-12-21T09:35:51.756Z,6.00
2018-12-21T09:38:20.340Z,6.00
2018-12-21T09:40:48.948Z,5.90
2018-12-21T09:43:17.419Z,6.00
2018-12-21T09:45:46.009Z,6.10
2018-12-21T09:48:14.728Z,6.00
2018-12-21T09:50:43.172Z,6.00
2018-12-21T09:53:11.700Z,6.00
2018-12-21T09:55:40.174Z,5.90
2018-12-21T09:58:08.660Z,5.90
2018-12-21T10:00:37.327Z,5.90
2018-12-21T10:03:05.919Z,5.80
2018-12-21T10:05:34.386Z,5.70
2018-12-21T10:08:02.885Z,5.70
2018-12-21T10:10:31.631Z,5.70
2018-12-21T10:13:00.076Z,5.70
2018-12-21T10:15:28.928Z,5.60
2018-12-21T10:17:57.562Z,5.60
2018-12-21T10:20:26.024Z,5.60
2018-12-21T10:22:54.783Z,5.50
2018-12-21T10:25:23.246Z,5.50
2018-12-21T10:27:51.780Z,5.50
2018-12-21T10:30:20.238Z,5.50
2018-12-21T10:32:48.730Z,5.40
2018-12-21T10:35:17.205Z,5.40
2018-12-21T10:37:45.951Z,5.40
2018-12-21T10:40:14.471Z,5.30
2018-12-21T10:42:42.984Z,5.30
2018-12-21T10:45:11.750Z,5.30
2018-12-21T10:47:40.200Z,5.30
2018-12-21T10:50:11.449Z,5.20
2018-12-21T10:52:40.176Z,5.10
2018-12-21T10:55:09.085Z,5.10
2018-12-21T10:57:38.068Z,5.10
2018-12-21T11:00:10.037Z,5.10
2018-12-21T11:02:38.877Z,5.10
2018-12-21T11:05:08.797Z,5.10
2018-12-21T11:07:37.576Z,5.10
2018-12-21T11:10:09.360Z,5.10
2018-12-21T11:12:38.224Z,5.10
2018-12-21T11:15:07.582Z,5.10
2018-12-21T11:17:36.083Z,5.00
2018-12-21T11:20:05.409Z,5.00
2018-12-21T11:22:33.938Z,5.00
2018-12-21T11:25:02.407Z,5.10
2018-12-21T11:27:31.120Z,5.10
2018-12-21T11:30:00.023Z,5.00
2018-12-21T11:32:28.757Z,5.00
2018-12-21T11:34:57.196Z,5.00
2018-12-21T11:37:25.778Z,5.00
2018-12-21T11:39:54.309Z,5.00
2018-12-21T11:42:22.766Z,5.00
2018-12-21T11:44:51.587Z,5.00
2018-12-21T11:47:20.437Z,5.00
2018-12-21T11:49:48.934Z,4.90
2018-12-21T11:52:17.708Z,4.80
2018-12-21T11:54:46.169Z,4.70
2018-12-21T11:57:14.654Z,4.70
2018-12-21T11:59:45.052Z,4.60
2018-12-21T12:02:19.435Z,4.60
2018-12-21T12:04:44.314Z,4.70
2018-12-21T12:07:12.848Z,4.80
2018-12-21T12:09:41.327Z,4.80
2018-12-21T12:12:09.919Z,4.90
2018-12-21T12:14:38.415Z,4.90
2018-12-21T12:17:06.926Z,5.00
2018-12-21T12:19:35.433Z,4.90
2018-12-21T12:22:04.022Z,4.90
2018-12-21T12:24:32.495Z,4.90
2018-12-21T12:27:01.140Z,4.80
2018-12-21T12:29:30.039Z,4.70
2018-12-21T12:31:58.520Z,4.70
2018-12-21T12:34:27.038Z,4.60
2018-12-21T12:36:55.519Z,4.60
2018-12-21T12:39:24.026Z,4.60
2018-12-21T12:41:52.652Z,4.50
2018-12-21T12:44:21.099Z,4.50
2018-12-21T12:46:50.646Z,4.40
2018-12-21T12:49:19.168Z,4.40
2018-12-21T12:51:47.806Z,4.40
2018-12-21T12:54:16.295Z,4.40
2018-12-21T12:56:44.792Z,4.40
2018-12-21T12:59:13.576Z,4.40
2018-12-21T13:01:42.767Z,4.40
2018-12-21T13:04:11.540Z,4.30
2018-12-21T13:06:40.228Z,4.40
2018-12-21T13:09:08.721Z,4.40
2018-12-21T13:11:38.095Z,4.30
2018-12-21T13:14:07.108Z,4.40
2018-12-21T13:16:35.690Z,4.40
2018-12-21T13:19:04.634Z,4.40
2018-12-21T13:21:33.280Z,4.40
2018-12-21T13:24:02.466Z,4.40
2018-12-21T13:26:31.171Z,4.40
2018-12-21T13:29:00.055Z,4.40
2018-12-21T13:31:28.906Z,4.40
2018-12-21T13:33:57.739Z,4.40
2018-12-21T13:36:26.280Z,4.50
2018-12-21T13:38:55.084Z,4.50
2018-12-21T13:41:23.757Z,4.50
2018-12-21T13:43:52.716Z,4.50
2018-12-21T13:46:21.316Z,4.50
2018-12-21T13:48:50.246Z,4.40
2018-12-21T13:51:19.173Z,4.50
2018-12-21T13:53:47.731Z,4.50
2018-12-21T13:56:16.266Z,4.50
2018-12-21T13:58:45.027Z,4.40
2018-12-21T14:01:13.606Z,4.40
2018-12-21T14:03:42.257Z,4.40
2018-12-21T14:06:10.864Z,4.40
2018-12-21T14:08:39.751Z,4.40
2018-12-21T14:11:08.498Z,4.30
2018-12-21T14:13:37.161Z,4.30
2018-12-21T14:16:05.987Z,4.30
2018-12-21T14:18:34.839Z,4.20
2018-12-21T14:21:03.754Z,4.20
2018-12-21T14:23:32.531Z,4.20
2018-12-21T14:26:01.374Z,4.20
2018-12-21T14:28:29.904Z,4.20
2018-12-21T14:30:58.616Z,4.20
2018-12-21T14:33:27.403Z,4.10
2018-12-21T14:35:56.110Z,4.10
2018-12-21T14:38:24.973Z,4.00
2018-12-21T14:40:53.667Z,4.10
2018-12-21T14:43:22.518Z,4.10
2018-12-21T14:45:50.995Z,4.10
2018-12-21T14:48:19.534Z,4.10
2018-12-21T14:50:48.070Z,4.10
2018-12-21T14:53:16.750Z,4.10
2018-12-21T14:55:45.263Z,4.10
2018-12-21T14:58:14.746Z,4.10
2018-12-21T15:00:43.286Z,4.00
2018-12-21T15:03:11.831Z,4.00
2018-12-21T15:05:40.266Z,4.00
2018-12-21T15:08:08.773Z,4.00
2018-12-21T15:10:37.251Z,4.00
2018-12-21T15:13:05.803Z,4.00
2018-12-21T15:15:34.262Z,3.90
2018-12-21T15:18:02.815Z,3.90
2018-12-21T15:20:31.257Z,3.90
2018-12-21T15:22:59.733Z,3.90
2018-12-21T15:25:28.196Z,3.90
2018-12-21T15:27:56.699Z,3.90
2018-12-21T15:30:25.410Z,3.90
2018-12-21T15:32:53.894Z,3.90
2018-12-21T15:35:22.367Z,3.90
2018-12-21T15:37:50.826Z,3.90
2018-12-21T15:40:19.527Z,3.90
2018-12-21T15:42:48.243Z,3.90
2018-12-21T15:45:16.704Z,3.90
2018-12-21T15:47:45.164Z,3.90
2018-12-21T15:50:13.727Z,3.90
2018-12-21T15:52:43.115Z,4.00
2018-12-21T15:55:11.781Z,4.00
2018-12-21T15:57:40.593Z,4.00
2018-12-21T16:00:12.469Z,4.00
2018-12-21T16:02:43.086Z,3.90
2018-12-21T16:05:11.783Z,4.00
2018-12-21T16:07:40.280Z,4.00
2018-12-21T16:10:10.425Z,3.90
2018-12-21T16:12:38.957Z,3.90
2018-12-21T16:15:07.795Z,4.00
2018-12-21T16:17:36.312Z,4.00
2018-12-21T16:20:06.821Z,4.00
2018-12-21T16:22:42.315Z,4.00
2018-12-21T16:25:06.322Z,4.00
2018-12-21T16:27:34.896Z,4.00
2018-12-21T16:30:03.652Z,4.00
2018-12-21T16:32:33.557Z,4.00
2018-12-21T16:35:02.040Z,4.00
2018-12-21T16:37:30.661Z,3.90
2018-12-21T16:39:59.245Z,3.90
2018-12-21T16:42:27.804Z,3.90
2018-12-21T16:44:56.443Z,3.90
2018-12-21T16:47:25.316Z,3.90
2018-12-21T16:49:53.816Z,4.00
2018-12-21T16:52:22.329Z,4.00
2018-12-21T16:54:50.854Z,4.00
2018-12-21T16:57:19.379Z,4.00
2018-12-21T16:59:47.829Z,4.00
2018-12-21T17:02:16.340Z,4.00
2018-12-21T17:04:45.216Z,4.00
2018-12-21T17:07:13.832Z,4.00
2018-12-21T17:09:42.346Z,4.00
2018-12-21T17:12:10.878Z,4.10
2018-12-21T17:14:39.375Z,4.10
2018-12-21T17:17:09.079Z,4.00
2018-12-21T17:19:37.606Z,4.00
2018-12-21T17:22:06.121Z,4.10
2018-12-21T17:24:34.774Z,4.00
2018-12-21T17:27:03.589Z,4.00
2018-12-21T17:29:32.043Z,4.00
2018-12-21T17:32:00.554Z,4.00
2018-12-21T17:34:29.445Z,3.90
2018-12-21T17:36:58.044Z,3.90
2018-12-21T17:39:26.813Z,3.90
2018-12-21T17:41:55.266Z,3.90
2018-12-21T17:44:23.730Z,3.90
2018-12-21T17:46:52.184Z,3.90
2018-12-21T17:49:20.944Z,3.80
2018-12-21T17:51:49.609Z,3.80
2018-12-21T17:54:21.171Z,3.90
2018-12-21T17:56:49.869Z,3.90
2018-12-21T17:59:18.484Z,3.90
2018-12-21T18:01:47.006Z,3.90
2018-12-21T18:04:23.910Z,3.80
2018-12-21T18:06:52.464Z,3.80
2018-12-21T18:09:22.443Z,3.80
2018-12-21T18:11:57.177Z,3.80
2018-12-21T18:14:21.704Z,3.80
2018-12-21T18:16:50.248Z,3.80
2018-12-21T18:19:19.485Z,3.70
2018-12-21T18:21:51.872Z,3.70
2018-12-21T18:24:21.157Z,3.70
2018-12-21T18:26:50.022Z,3.70
2018-12-21T18:29:18.573Z,3.70
2018-12-21T18:31:54.712Z,3.70
2018-12-21T18:34:34.894Z,3.80
2018-12-21T18:37:06.495Z,3.80
2018-12-21T18:39:35.207Z,3.80
2018-12-21T18:42:05.713Z,3.80
2018-12-21T18:44:34.566Z,3.80
2018-12-21T18:47:03.003Z,3.70
2018-12-21T18:49:31.511Z,3.80
2018-12-21T18:52:00.008Z,3.80
2018-12-21T18:54:29.007Z,3.80
2018-12-21T18:57:04.542Z,3.80
2018-12-21T18:59:33.012Z,3.80
2018-12-21T19:02:01.495Z,3.80
2018-12-21T19:04:30.046Z,3.80
2018-12-21T19:06:58.671Z,3.80
2018-12-21T19:09:27.447Z,3.90
2018-12-21T19:11:55.973Z,3.90
2018-12-21T19:14:24.837Z,3.90
2018-12-21T19:16:53.687Z,4.00
2018-12-21T19:19:22.173Z,3.90
2018-12-21T19:21:50.757Z,3.90
2018-12-21T19:24:19.541Z,3.90
2018-12-21T19:26:55.585Z,3.90
2018-12-21T19:29:18.840Z,3.90
2018-12-21T19:31:47.338Z,4.10
2018-12-21T19:34:15.860Z,4.30
2018-12-21T19:36:44.514Z,4.40
2018-12-21T19:39:13.527Z,4.30
2018-12-21T19:41:42.470Z,4.20
2018-12-21T19:44:11.274Z,4.10
2018-12-21T19:46:40.047Z,4.10
2018-12-21T19:49:08.601Z,4.00
2018-12-21T19:51:37.076Z,4.00
2018-12-21T19:54:05.973Z,4.00
2018-12-21T19:57:12.821Z,3.90
2018-12-21T19:59:41.321Z,3.90
2018-12-21T20:02:11.400Z,3.90
2018-12-21T20:04:40.993Z,3.90
2018-12-21T20:07:09.476Z,3.90
2018-12-21T20:09:37.981Z,3.80
2018-12-21T20:12:07.432Z,3.80
2018-12-21T20:14:36.077Z,3.80
2018-12-21T20:17:04.788Z,3.80
2018-12-21T20:19:33.425Z,3.80
2018-12-21T20:22:02.034Z,3.80
2018-12-21T20:24:36.167Z,3.80
2018-12-21T20:27:13.949Z,3.80
2018-12-21T20:29:43.637Z,3.80
2018-12-21T20:32:13.390Z,3.80
2018-12-21T20:34:41.887Z,3.80
2018-12-21T20:37:10.460Z,3.80
2018-12-21T20:39:42.352Z,3.80
2018-12-21T20:42:11.584Z,3.80
2018-12-21T20:44:40.206Z,3.80
2018-12-21T20:47:09.385Z,3.90
2018-12-21T20:49:38.038Z,4.00
2018-12-21T20:52:06.722Z,4.00
2018-12-21T20:54:35.480Z,4.10
2018-12-21T20:57:05.896Z,4.10
2018-12-21T20:59:34.687Z,4.20
2018-12-21T21:02:03.338Z,4.20
2018-12-21T21:04:32.030Z,4.30
2018-12-21T21:07:00.609Z,4.30
2018-12-21T21:09:29.262Z,4.30
2018-12-21T21:11:57.906Z,4.30
2018-12-21T21:14:26.637Z,4.30
2018-12-21T21:16:55.496Z,4.20
2018-12-21T21:19:25.833Z,4.30
2018-12-21T21:21:54.399Z,4.20
2018-12-21T21:24:23.052Z,4.30
2018-12-21T21:26:51.640Z,4.30
2018-12-21T21:29:20.281Z,4.20
2018-12-21T21:31:49.384Z,4.20
2018-12-21T21:34:17.946Z,4.20
2018-12-21T21:36:46.795Z,4.20
2018-12-21T21:39:16.138Z,4.20
2018-12-21T21:41:44.857Z,4.10
2018-12-21T21:44:14.189Z,4.10
2018-12-21T21:46:43.031Z,4.10
2018-12-21T21:49:11.812Z,4.10
2018-12-21T21:51:40.300Z,4.10
2018-12-21T21:54:08.829Z,4.10
2018-12-21T21:56:37.422Z,4.00
2018-12-21T21:59:05.944Z,4.00
2018-12-21T22:01:34.599Z,4.00
2018-12-21T22:04:03.120Z,4.00
2018-12-21T22:06:32.007Z,4.00
2018-12-21T22:09:00.474Z,4.00
2018-12-21T22:11:29.148Z,3.90
2018-12-21T22:13:57.958Z,4.00
2018-12-21T22:16:26.539Z,4.00
2018-12-21T22:18:55.138Z,3.90
2018-12-21T22:21:24.015Z,3.90
2018-12-21T22:23:52.621Z,3.90
2018-12-21T22:26:21.285Z,3.90
2018-12-21T22:28:50.062Z,3.80
2018-12-21T22:31:18.819Z,3.80
2018-12-21T22:33:47.415Z,3.80
2018-12-21T22:36:15.894Z,3.80
2018-12-21T22:38:44.415Z,3.80
2018-12-21T22:41:13.151Z,3.80
2018-12-21T22:43:42.334Z,3.80
2018-12-21T22:46:11.387Z,3.70
2018-12-21T22:48:40.296Z,3.70
2018-12-21T22:51:09.079Z,3.70
2018-12-21T22:53:37.788Z,3.60
2018-12-21T22:56:06.375Z,3.60
2018-12-21T22:58:35.419Z,3.60
2018-12-21T23:01:04.166Z,3.50
2018-12-21T23:03:33.349Z,3.60
2018-12-21T23:06:02.437Z,3.50
2018-12-21T23:08:32.164Z,3.50
2018-12-21T23:11:02.162Z,3.50
2018-12-21T23:13:30.647Z,3.50
2018-12-21T23:15:59.230Z,3.50
2018-12-21T23:18:27.873Z,3.50
2018-12-21T23:20:56.388Z,3.50
2018-12-21T23:23:24.872Z,3.50
2018-12-21T23:25:53.353Z,3.50
2018-12-21T23:28:21.917Z,3.50
2018-12-21T23:30:50.650Z,3.60
2018-12-21T23:33:19.113Z,3.60
2018-12-21T23:35:47.627Z,3.60
2018-12-21T23:38:16.314Z,3.60
2018-12-21T23:40:45.023Z,3.60
2018-12-21T23:43:14.011Z,3.60
2018-12-21T23:45:42.485Z,3.60
2018-12-21T23:48:11.132Z,3.60
2018-12-21T23:50:39.730Z,3.60
2018-12-21T23:53:08.404Z,3.60
2018-12-21T23:55:36.914Z,3.60
2018-12-21T23:58:13.463Z,3.60
